sensor_id;sensor_type;location;lat;lon;timestamp;temperature;humidity
5459;DHT22;2752;49.992;8.422;2023-04-12T00:00:44;10.00;1.00
5459;DHT22;2752;49.992;8.422;2023-04-12T00:03:11;10.00;1.00
5459;DHT22;2752;49.992;8.422;2023-04-12T00:05:38;10.10;1.00
5459;DHT22;2752;49.992;8.422;2023-04-12T00:08:04;10.10;1.00
5459;DHT22;2752;49.992;8.422;2023-04-12T00:10:36;10.10;1.00
5459;DHT22;2752;49.992;8.422;2023-04-12T00:13:03;10.30;1.00
5459;DHT22;2752;49.992;8.422;2023-04-12T00:15:29;10.20;1.00
5459;DHT22;2752;49.992;8.422;2023-04-12T00:17:56;10.10;1.00
5459;DHT22;2752;49.992;8.422;2023-04-12T00:20:23;10.00;1.00
5459;DHT22;2752;49.992;8.422;2023-04-12T00:22:49;10.00;1.00
5459;DHT22;2752;49.992;8.422;2023-04-12T00:25:18;9.90;1.00
5459;DHT22;2752;49.992;8.422;2023-04-12T00:27:46;10.10;1.00
5459;DHT22;2752;49.992;8.422;2023-04-12T00:30:13;10.10;1.00
5459;DHT22;2752;49.992;8.422;2023-04-12T00:32:40;10.00;1.00
5459;DHT22;2752;49.992;8.422;2023-04-12T00:35:07;10.00;1.00
5459;DHT22;2752;49.992;8.422;2023-04-12T00:37:33;9.90;1.00
5459;DHT22;2752;49.992;8.422;2023-04-12T00:40:03;9.80;1.00
5459;DHT22;2752;49.992;8.422;2023-04-12T00:42:32;9.80;1.00
5459;DHT22;2752;49.992;8.422;2023-04-12T00:45:01;9.70;1.00
5459;DHT22;2752;49.992;8.422;2023-04-12T00:47:28;9.70;1.00
5459;DHT22;2752;49.992;8.422;2023-04-12T00:49:55;9.70;1.00
5459;DHT22;2752;49.992;8.422;2023-04-12T00:52:22;9.60;1.00
5459;DHT22;2752;49.992;8.422;2023-04-12T00:54:49;9.60;1.00
5459;DHT22;2752;49.992;8.422;2023-04-12T00:57:17;9.60;1.00
5459;DHT22;2752;49.992;8.422;2023-04-12T00:59:44;9.60;1.00
5459;DHT22;2752;49.992;8.422;2023-04-12T01:02:12;9.50;1.00
5459;DHT22;2752;49.992;8.422;2023-04-12T01:04:39;9.50;1.00
5459;DHT22;2752;49.992;8.422;2023-04-12T01:07:13;9.50;1.50
5459;DHT22;2752;49.992;8.422;2023-04-12T01:09:49;9.40;3.20
5459;DHT22;2752;49.992;8.422;2023-04-12T01:12:26;9.40;3.70
5459;DHT22;2752;49.992;8.422;2023-04-12T01:15:03;9.50;5.70
5459;DHT22;2752;49.992;8.422;2023-04-12T01:17:38;9.40;7.30
5459;DHT22;2752;49.992;8.422;2023-04-12T01:20:14;9.40;8.90
5459;DHT22;2752;49.992;8.422;2023-04-12T01:23:05;9.40;11.80
5459;DHT22;2752;49.992;8.422;2023-04-12T01:25:39;9.40;12.40
5459;DHT22;2752;49.992;8.422;2023-04-12T01:28:13;9.40;15.00
5459;DHT22;2752;49.992;8.422;2023-04-12T01:30:41;9.30;17.30
5459;DHT22;2752;49.992;8.422;2023-04-12T01:33:10;9.30;18.90
5459;DHT22;2752;49.992;8.422;2023-04-12T01:35:38;9.20;21.90
5459;DHT22;2752;49.992;8.422;2023-04-12T01:38:05;9.10;25.50
5459;DHT22;2752;49.992;8.422;2023-04-12T01:40:32;9.30;28.10
5459;DHT22;2752;49.992;8.422;2023-04-12T01:43:04;9.10;32.60
5459;DHT22;2752;49.992;8.422;2023-04-12T01:45:32;9.00;36.00
5459;DHT22;2752;49.992;8.422;2023-04-12T01:48:00;9.00;37.30
5459;DHT22;2752;49.992;8.422;2023-04-12T01:50:34;9.00;38.50
5459;DHT22;2752;49.992;8.422;2023-04-12T01:53:09;9.00;43.40
5459;DHT22;2752;49.992;8.422;2023-04-12T01:55:38;9.00;47.00
5459;DHT22;2752;49.992;8.422;2023-04-12T01:58:07;9.00;49.40
5459;DHT22;2752;49.992;8.422;2023-04-12T02:00:38;8.90;52.10
5459;DHT22;2752;49.992;8.422;2023-04-12T02:03:07;8.90;56.90
5459;DHT22;2752;49.992;8.422;2023-04-12T02:05:34;9.00;59.00
5459;DHT22;2752;49.992;8.422;2023-04-12T02:08:01;8.90;57.90
5459;DHT22;2752;49.992;8.422;2023-04-12T02:10:29;8.90;59.30
5459;DHT22;2752;49.992;8.422;2023-04-12T02:12:58;9.00;62.20
5459;DHT22;2752;49.992;8.422;2023-04-12T02:15:25;9.00;60.20
5459;DHT22;2752;49.992;8.422;2023-04-12T02:17:53;8.90;62.60
5459;DHT22;2752;49.992;8.422;2023-04-12T02:20:20;8.90;65.90
5459;DHT22;2752;49.992;8.422;2023-04-12T02:22:47;8.90;69.10
5459;DHT22;2752;49.992;8.422;2023-04-12T02:25:14;8.90;70.40
5459;DHT22;2752;49.992;8.422;2023-04-12T02:27:42;8.80;71.30
5459;DHT22;2752;49.992;8.422;2023-04-12T02:30:09;8.80;73.90
5459;DHT22;2752;49.992;8.422;2023-04-12T02:32:36;8.80;75.50
5459;DHT22;2752;49.992;8.422;2023-04-12T02:35:11;8.80;76.50
5459;DHT22;2752;49.992;8.422;2023-04-12T02:37:39;8.80;76.10
5459;DHT22;2752;49.992;8.422;2023-04-12T02:40:06;8.70;75.90
5459;DHT22;2752;49.992;8.422;2023-04-12T02:42:34;8.70;76.00
5459;DHT22;2752;49.992;8.422;2023-04-12T02:45:01;8.70;76.30
5459;DHT22;2752;49.992;8.422;2023-04-12T02:47:29;8.70;77.40
5459;DHT22;2752;49.992;8.422;2023-04-12T02:49:56;8.60;79.50
5459;DHT22;2752;49.992;8.422;2023-04-12T02:52:24;8.60;81.50
5459;DHT22;2752;49.992;8.422;2023-04-12T02:54:53;8.60;81.60
5459;DHT22;2752;49.992;8.422;2023-04-12T02:57:20;8.70;82.00
5459;DHT22;2752;49.992;8.422;2023-04-12T02:59:49;8.60;82.10
5459;DHT22;2752;49.992;8.422;2023-04-12T03:02:17;8.70;84.40
5459;DHT22;2752;49.992;8.422;2023-04-12T03:04:44;8.80;81.80
5459;DHT22;2752;49.992;8.422;2023-04-12T03:09:39;8.70;81.30
5459;DHT22;2752;49.992;8.422;2023-04-12T03:12:07;8.70;83.60
5459;DHT22;2752;49.992;8.422;2023-04-12T03:14:33;8.60;83.10
5459;DHT22;2752;49.992;8.422;2023-04-12T03:17:00;8.60;84.20
5459;DHT22;2752;49.992;8.422;2023-04-12T03:19:27;8.60;84.60
5459;DHT22;2752;49.992;8.422;2023-04-12T03:21:57;8.60;85.60
5459;DHT22;2752;49.992;8.422;2023-04-12T03:24:24;8.50;86.90
5459;DHT22;2752;49.992;8.422;2023-04-12T03:26:52;8.50;87.10
5459;DHT22;2752;49.992;8.422;2023-04-12T03:29:20;8.50;87.80
5459;DHT22;2752;49.992;8.422;2023-04-12T03:31:47;8.50;88.10
5459;DHT22;2752;49.992;8.422;2023-04-12T03:34:13;8.70;88.90
5459;DHT22;2752;49.992;8.422;2023-04-12T03:36:40;8.70;86.70
5459;DHT22;2752;49.992;8.422;2023-04-12T03:39:07;8.70;86.80
5459;DHT22;2752;49.992;8.422;2023-04-12T03:41:34;8.60;86.20
5459;DHT22;2752;49.992;8.422;2023-04-12T03:44:02;8.60;87.40
5459;DHT22;2752;49.992;8.422;2023-04-12T03:46:29;8.60;88.60
5459;DHT22;2752;49.992;8.422;2023-04-12T03:48:55;8.50;87.80
5459;DHT22;2752;49.992;8.422;2023-04-12T03:51:22;8.60;89.10
5459;DHT22;2752;49.992;8.422;2023-04-12T03:53:51;8.50;89.60
5459;DHT22;2752;49.992;8.422;2023-04-12T03:56:17;8.40;90.50
5459;DHT22;2752;49.992;8.422;2023-04-12T03:58:45;8.40;91.30
5459;DHT22;2752;49.992;8.422;2023-04-12T04:01:13;8.40;91.40
5459;DHT22;2752;49.992;8.422;2023-04-12T04:03:42;8.30;93.70
5459;DHT22;2752;49.992;8.422;2023-04-12T04:06:09;8.40;93.90
5459;DHT22;2752;49.992;8.422;2023-04-12T04:08:36;8.30;94.40
5459;DHT22;2752;49.992;8.422;2023-04-12T04:11:04;8.30;95.50
5459;DHT22;2752;49.992;8.422;2023-04-12T04:13:30;8.30;96.50
5459;DHT22;2752;49.992;8.422;2023-04-12T04:16:00;8.30;96.70
5459;DHT22;2752;49.992;8.422;2023-04-12T04:18:29;8.30;97.40
5459;DHT22;2752;49.992;8.422;2023-04-12T04:20:55;8.30;98.10
5459;DHT22;2752;49.992;8.422;2023-04-12T04:23:23;8.30;98.60
5459;DHT22;2752;49.992;8.422;2023-04-12T04:25:49;8.30;98.40
5459;DHT22;2752;49.992;8.422;2023-04-12T04:28:18;8.40;97.80
5459;DHT22;2752;49.992;8.422;2023-04-12T04:30:44;8.30;96.80
5459;DHT22;2752;49.992;8.422;2023-04-12T04:33:11;8.40;97.90
5459;DHT22;2752;49.992;8.422;2023-04-12T04:35:41;8.30;97.80
5459;DHT22;2752;49.992;8.422;2023-04-12T04:38:08;8.30;97.80
5459;DHT22;2752;49.992;8.422;2023-04-12T04:40:36;8.60;99.70
5459;DHT22;2752;49.992;8.422;2023-04-12T04:43:03;8.60;97.90
5459;DHT22;2752;49.992;8.422;2023-04-12T04:45:30;8.50;97.10
5459;DHT22;2752;49.992;8.422;2023-04-12T04:47:57;8.50;97.30
5459;DHT22;2752;49.992;8.422;2023-04-12T04:50:24;8.50;97.40
5459;DHT22;2752;49.992;8.422;2023-04-12T04:52:53;8.50;96.80
5459;DHT22;2752;49.992;8.422;2023-04-12T04:55:20;8.50;96.50
5459;DHT22;2752;49.992;8.422;2023-04-12T04:57:49;8.40;96.90
5459;DHT22;2752;49.992;8.422;2023-04-12T05:00:16;8.60;96.90
5459;DHT22;2752;49.992;8.422;2023-04-12T05:02:43;8.50;97.20
5459;DHT22;2752;49.992;8.422;2023-04-12T05:05:11;8.50;96.30
5459;DHT22;2752;49.992;8.422;2023-04-12T05:07:38;8.40;96.90
5459;DHT22;2752;49.992;8.422;2023-04-12T05:10:07;8.40;96.60
5459;DHT22;2752;49.992;8.422;2023-04-12T05:12:34;8.40;97.80
5459;DHT22;2752;49.992;8.422;2023-04-12T05:15:02;8.50;97.30
5459;DHT22;2752;49.992;8.422;2023-04-12T05:17:29;8.40;96.30
5459;DHT22;2752;49.992;8.422;2023-04-12T05:19:56;8.40;96.30
5459;DHT22;2752;49.992;8.422;2023-04-12T05:22:22;8.20;96.20
5459;DHT22;2752;49.992;8.422;2023-04-12T05:24:49;8.40;97.30
5459;DHT22;2752;49.992;8.422;2023-04-12T05:27:17;8.50;97.00
5459;DHT22;2752;49.992;8.422;2023-04-12T05:29:44;8.50;96.30
5459;DHT22;2752;49.992;8.422;2023-04-12T05:32:11;8.50;96.70
5459;DHT22;2752;49.992;8.422;2023-04-12T05:34:38;8.50;96.80
5459;DHT22;2752;49.992;8.422;2023-04-12T05:37:04;8.50;96.80
5459;DHT22;2752;49.992;8.422;2023-04-12T05:39:32;8.60;96.40
5459;DHT22;2752;49.992;8.422;2023-04-12T05:41:59;8.60;97.20
5459;DHT22;2752;49.992;8.422;2023-04-12T05:44:27;8.60;95.80
5459;DHT22;2752;49.992;8.422;2023-04-12T05:46:53;8.70;96.00
5459;DHT22;2752;49.992;8.422;2023-04-12T05:51:47;8.60;94.50
5459;DHT22;2752;49.992;8.422;2023-04-12T05:54:14;8.70;94.60
5459;DHT22;2752;49.992;8.422;2023-04-12T05:56:41;8.70;94.90
5459;DHT22;2752;49.992;8.422;2023-04-12T05:59:08;8.70;93.40
5459;DHT22;2752;49.992;8.422;2023-04-12T06:01:37;8.60;92.70
5459;DHT22;2752;49.992;8.422;2023-04-12T06:04:07;8.60;93.30
5459;DHT22;2752;49.992;8.422;2023-04-12T06:06:34;8.70;92.70
5459;DHT22;2752;49.992;8.422;2023-04-12T06:09:00;8.60;92.00
5459;DHT22;2752;49.992;8.422;2023-04-12T06:11:29;8.60;93.00
5459;DHT22;2752;49.992;8.422;2023-04-12T06:13:56;8.60;93.40
5459;DHT22;2752;49.992;8.422;2023-04-12T06:16:22;8.60;93.60
5459;DHT22;2752;49.992;8.422;2023-04-12T06:18:50;8.60;93.50
5459;DHT22;2752;49.992;8.422;2023-04-12T06:21:18;8.60;94.90
5459;DHT22;2752;49.992;8.422;2023-04-12T06:23:45;8.70;93.90
5459;DHT22;2752;49.992;8.422;2023-04-12T06:26:11;8.60;92.50
5459;DHT22;2752;49.992;8.422;2023-04-12T06:28:38;8.60;93.60
5459;DHT22;2752;49.992;8.422;2023-04-12T06:31:05;8.70;94.80
5459;DHT22;2752;49.992;8.422;2023-04-12T06:33:32;8.70;93.70
5459;DHT22;2752;49.992;8.422;2023-04-12T06:36:02;8.60;92.90
5459;DHT22;2752;49.992;8.422;2023-04-12T06:38:29;8.50;94.10
5459;DHT22;2752;49.992;8.422;2023-04-12T06:40:56;8.70;94.20
5459;DHT22;2752;49.992;8.422;2023-04-12T06:43:22;8.60;94.40
5459;DHT22;2752;49.992;8.422;2023-04-12T06:45:49;8.70;95.20
5459;DHT22;2752;49.992;8.422;2023-04-12T06:48:16;8.60;94.60
5459;DHT22;2752;49.992;8.422;2023-04-12T06:50:43;8.80;95.70
5459;DHT22;2752;49.992;8.422;2023-04-12T06:53:11;8.80;93.70
5459;DHT22;2752;49.992;8.422;2023-04-12T06:55:38;8.70;93.00
5459;DHT22;2752;49.992;8.422;2023-04-12T06:58:05;8.80;94.40
5459;DHT22;2752;49.992;8.422;2023-04-12T07:00:32;8.80;93.50
5459;DHT22;2752;49.992;8.422;2023-04-12T07:02:59;8.70;94.10
5459;DHT22;2752;49.992;8.422;2023-04-12T07:05:25;8.70;94.90
5459;DHT22;2752;49.992;8.422;2023-04-12T07:07:52;8.70;95.90
5459;DHT22;2752;49.992;8.422;2023-04-12T07:10:20;8.70;96.50
5459;DHT22;2752;49.992;8.422;2023-04-12T07:12:47;8.80;96.70
5459;DHT22;2752;49.992;8.422;2023-04-12T07:15:13;8.80;97.40
5459;DHT22;2752;49.992;8.422;2023-04-12T07:17:40;8.80;95.70
5459;DHT22;2752;49.992;8.422;2023-04-12T07:20:07;8.90;96.30
5459;DHT22;2752;49.992;8.422;2023-04-12T07:22:34;8.90;96.20
5459;DHT22;2752;49.992;8.422;2023-04-12T07:25:01;8.90;95.70
5459;DHT22;2752;49.992;8.422;2023-04-12T07:27:30;8.90;95.90
5459;DHT22;2752;49.992;8.422;2023-04-12T07:29:57;9.10;96.80
5459;DHT22;2752;49.992;8.422;2023-04-12T07:32:24;9.10;95.30
5459;DHT22;2752;49.992;8.422;2023-04-12T07:34:51;9.00;93.90
5459;DHT22;2752;49.992;8.422;2023-04-12T07:37:18;9.00;94.90
5459;DHT22;2752;49.992;8.422;2023-04-12T07:39:44;9.00;95.60
5459;DHT22;2752;49.992;8.422;2023-04-12T07:42:11;9.10;95.50
5459;DHT22;2752;49.992;8.422;2023-04-12T07:44:39;9.10;95.60
5459;DHT22;2752;49.992;8.422;2023-04-12T07:47:06;9.10;94.80
5459;DHT22;2752;49.992;8.422;2023-04-12T07:49:32;9.20;94.60
5459;DHT22;2752;49.992;8.422;2023-04-12T07:51:59;9.20;94.60
5459;DHT22;2752;49.992;8.422;2023-04-12T07:54:27;9.30;93.90
5459;DHT22;2752;49.992;8.422;2023-04-12T07:56:57;9.40;94.20
5459;DHT22;2752;49.992;8.422;2023-04-12T07:59:24;9.40;93.70
5459;DHT22;2752;49.992;8.422;2023-04-12T08:01:52;9.40;93.10
5459;DHT22;2752;49.992;8.422;2023-04-12T08:04:18;9.40;92.10
5459;DHT22;2752;49.992;8.422;2023-04-12T08:06:45;9.40;92.80
5459;DHT22;2752;49.992;8.422;2023-04-12T08:09:12;9.40;93.00
5459;DHT22;2752;49.992;8.422;2023-04-12T08:11:38;9.40;92.70
5459;DHT22;2752;49.992;8.422;2023-04-12T08:14:05;9.40;93.30
5459;DHT22;2752;49.992;8.422;2023-04-12T08:16:32;9.50;94.30
5459;DHT22;2752;49.992;8.422;2023-04-12T08:19:00;9.60;94.30
5459;DHT22;2752;49.992;8.422;2023-04-12T08:21:27;9.60;94.40
5459;DHT22;2752;49.992;8.422;2023-04-12T08:23:54;9.70;94.40
5459;DHT22;2752;49.992;8.422;2023-04-12T08:26:21;9.80;93.90
5459;DHT22;2752;49.992;8.422;2023-04-12T08:28:47;9.80;92.20
5459;DHT22;2752;49.992;8.422;2023-04-12T08:31:14;9.80;92.10
5459;DHT22;2752;49.992;8.422;2023-04-12T08:33:41;9.90;93.00
5459;DHT22;2752;49.992;8.422;2023-04-12T08:36:09;9.90;90.40
5459;DHT22;2752;49.992;8.422;2023-04-12T08:38:36;10.00;91.40
5459;DHT22;2752;49.992;8.422;2023-04-12T08:41:03;10.10;90.90
5459;DHT22;2752;49.992;8.422;2023-04-12T08:43:32;10.10;90.30
5459;DHT22;2752;49.992;8.422;2023-04-12T08:45:59;10.10;90.40
5459;DHT22;2752;49.992;8.422;2023-04-12T08:48:27;10.10;90.20
5459;DHT22;2752;49.992;8.422;2023-04-12T08:50:55;10.10;90.50
5459;DHT22;2752;49.992;8.422;2023-04-12T08:53:23;10.20;90.60
5459;DHT22;2752;49.992;8.422;2023-04-12T08:55:50;10.20;88.60
5459;DHT22;2752;49.992;8.422;2023-04-12T08:58:17;10.30;90.30
5459;DHT22;2752;49.992;8.422;2023-04-12T09:00:45;10.20;87.90
5459;DHT22;2752;49.992;8.422;2023-04-12T09:03:12;10.20;88.70
5459;DHT22;2752;49.992;8.422;2023-04-12T09:05:39;10.20;88.80
5459;DHT22;2752;49.992;8.422;2023-04-12T09:08:06;10.30;89.10
5459;DHT22;2752;49.992;8.422;2023-04-12T09:10:35;10.30;90.00
5459;DHT22;2752;49.992;8.422;2023-04-12T09:13:03;10.40;88.70
5459;DHT22;2752;49.992;8.422;2023-04-12T09:15:30;10.40;88.20
5459;DHT22;2752;49.992;8.422;2023-04-12T09:18:05;10.50;88.60
5459;DHT22;2752;49.992;8.422;2023-04-12T09:20:32;10.50;88.20
5459;DHT22;2752;49.992;8.422;2023-04-12T09:22:59;10.60;88.30
5459;DHT22;2752;49.992;8.422;2023-04-12T09:25:39;10.60;86.70
5459;DHT22;2752;49.992;8.422;2023-04-12T09:28:18;10.60;86.50
5459;DHT22;2752;49.992;8.422;2023-04-12T09:30:46;10.60;86.00
5459;DHT22;2752;49.992;8.422;2023-04-12T09:33:17;10.70;86.00
5459;DHT22;2752;49.992;8.422;2023-04-12T09:35:44;10.70;87.90
5459;DHT22;2752;49.992;8.422;2023-04-12T09:38:11;10.70;87.40
5459;DHT22;2752;49.992;8.422;2023-04-12T09:40:39;10.70;87.50
5459;DHT22;2752;49.992;8.422;2023-04-12T09:43:06;10.80;89.20
5459;DHT22;2752;49.992;8.422;2023-04-12T09:45:33;10.80;87.90
5459;DHT22;2752;49.992;8.422;2023-04-12T09:48:01;10.90;87.10
5459;DHT22;2752;49.992;8.422;2023-04-12T09:50:29;11.00;88.20
5459;DHT22;2752;49.992;8.422;2023-04-12T09:52:58;11.00;88.00
5459;DHT22;2752;49.992;8.422;2023-04-12T09:55:27;11.00;87.90
5459;DHT22;2752;49.992;8.422;2023-04-12T09:57:55;11.20;88.00
5459;DHT22;2752;49.992;8.422;2023-04-12T10:00:23;11.20;85.00
5459;DHT22;2752;49.992;8.422;2023-04-12T10:02:53;11.40;85.40
5459;DHT22;2752;49.992;8.422;2023-04-12T10:05:21;11.40;83.00
5459;DHT22;2752;49.992;8.422;2023-04-12T10:07:50;11.40;81.90
5459;DHT22;2752;49.992;8.422;2023-04-12T10:10:18;11.30;82.60
5459;DHT22;2752;49.992;8.422;2023-04-12T10:12:47;11.50;82.60
5459;DHT22;2752;49.992;8.422;2023-04-12T10:15:15;11.50;82.00
5459;DHT22;2752;49.992;8.422;2023-04-12T10:17:44;11.40;82.40
5459;DHT22;2752;49.992;8.422;2023-04-12T10:20:11;11.40;82.00
5459;DHT22;2752;49.992;8.422;2023-04-12T10:22:39;11.30;82.80
5459;DHT22;2752;49.992;8.422;2023-04-12T10:25:09;11.30;85.30
5459;DHT22;2752;49.992;8.422;2023-04-12T10:27:39;11.40;86.20
5459;DHT22;2752;49.992;8.422;2023-04-12T10:30:20;11.40;85.70
5459;DHT22;2752;49.992;8.422;2023-04-12T10:32:48;11.40;85.10
5459;DHT22;2752;49.992;8.422;2023-04-12T10:35:15;11.30;86.30
5459;DHT22;2752;49.992;8.422;2023-04-12T10:37:57;11.40;88.20
5459;DHT22;2752;49.992;8.422;2023-04-12T10:40:24;11.40;86.70
5459;DHT22;2752;49.992;8.422;2023-04-12T10:43:24;11.50;86.10
5459;DHT22;2752;49.992;8.422;2023-04-12T10:45:53;11.60;84.90
5459;DHT22;2752;49.992;8.422;2023-04-12T10:48:30;11.60;84.90
5459;DHT22;2752;49.992;8.422;2023-04-12T10:51:14;11.60;82.70
5459;DHT22;2752;49.992;8.422;2023-04-12T10:53:43;11.60;84.60
5459;DHT22;2752;49.992;8.422;2023-04-12T10:56:35;11.60;85.00
5459;DHT22;2752;49.992;8.422;2023-04-12T10:59:03;11.70;85.90
5459;DHT22;2752;49.992;8.422;2023-04-12T11:01:32;11.70;86.90
5459;DHT22;2752;49.992;8.422;2023-04-12T11:04:13;11.80;86.70
5459;DHT22;2752;49.992;8.422;2023-04-12T11:06:41;11.90;84.80
5459;DHT22;2752;49.992;8.422;2023-04-12T11:09:16;11.90;83.20
5459;DHT22;2752;49.992;8.422;2023-04-12T11:11:43;11.90;83.90
5459;DHT22;2752;49.992;8.422;2023-04-12T11:14:12;11.90;84.40
5459;DHT22;2752;49.992;8.422;2023-04-12T11:19:41;11.90;84.00
5459;DHT22;2752;49.992;8.422;2023-04-12T11:22:10;12.40;86.50
5459;DHT22;2752;49.992;8.422;2023-04-12T11:24:38;12.20;82.80
5459;DHT22;2752;49.992;8.422;2023-04-12T11:27:04;12.30;82.80
5459;DHT22;2752;49.992;8.422;2023-04-12T11:29:31;12.40;83.50
5459;DHT22;2752;49.992;8.422;2023-04-12T11:31:59;12.50;82.80
5459;DHT22;2752;49.992;8.422;2023-04-12T11:34:31;12.60;80.70
5459;DHT22;2752;49.992;8.422;2023-04-12T11:36:59;12.70;79.00
5459;DHT22;2752;49.992;8.422;2023-04-12T11:39:28;12.70;78.40
5459;DHT22;2752;49.992;8.422;2023-04-12T11:41:55;12.70;77.00
5459;DHT22;2752;49.992;8.422;2023-04-12T11:44:22;12.70;77.30
5459;DHT22;2752;49.992;8.422;2023-04-12T11:46:49;12.60;77.70
5459;DHT22;2752;49.992;8.422;2023-04-12T11:49:17;12.80;77.90
5459;DHT22;2752;49.992;8.422;2023-04-12T11:51:45;12.80;77.70
5459;DHT22;2752;49.992;8.422;2023-04-12T11:54:13;12.80;74.00
5459;DHT22;2752;49.992;8.422;2023-04-12T11:56:40;12.80;72.90
5459;DHT22;2752;49.992;8.422;2023-04-12T11:59:07;12.60;74.20
5459;DHT22;2752;49.992;8.422;2023-04-12T12:01:34;12.60;77.70
5459;DHT22;2752;49.992;8.422;2023-04-12T12:04:02;12.60;77.60
5459;DHT22;2752;49.992;8.422;2023-04-12T12:06:29;12.60;79.10
5459;DHT22;2752;49.992;8.422;2023-04-12T12:08:56;12.70;79.20
5459;DHT22;2752;49.992;8.422;2023-04-12T12:11:25;12.80;79.50
5459;DHT22;2752;49.992;8.422;2023-04-12T12:13:53;12.80;77.80
5459;DHT22;2752;49.992;8.422;2023-04-12T12:16:23;12.70;73.60
5459;DHT22;2752;49.992;8.422;2023-04-12T12:18:50;12.70;75.60
5459;DHT22;2752;49.992;8.422;2023-04-12T12:21:17;12.80;75.40
5459;DHT22;2752;49.992;8.422;2023-04-12T12:23:45;12.80;75.00
5459;DHT22;2752;49.992;8.422;2023-04-12T12:26:21;12.80;73.50
5459;DHT22;2752;49.992;8.422;2023-04-12T12:28:51;12.80;73.00
5459;DHT22;2752;49.992;8.422;2023-04-12T12:31:18;12.70;74.60
5459;DHT22;2752;49.992;8.422;2023-04-12T12:33:46;12.60;73.80
5459;DHT22;2752;49.992;8.422;2023-04-12T12:36:17;12.60;72.70
5459;DHT22;2752;49.992;8.422;2023-04-12T12:38:44;12.60;74.80
5459;DHT22;2752;49.992;8.422;2023-04-12T12:41:15;12.50;77.60
5459;DHT22;2752;49.992;8.422;2023-04-12T12:43:45;12.50;80.20
5459;DHT22;2752;49.992;8.422;2023-04-12T12:46:13;12.40;82.90
5459;DHT22;2752;49.992;8.422;2023-04-12T12:48:42;12.40;86.00
5459;DHT22;2752;49.992;8.422;2023-04-12T12:51:09;12.50;87.00
5459;DHT22;2752;49.992;8.422;2023-04-12T12:53:37;12.50;87.80
5459;DHT22;2752;49.992;8.422;2023-04-12T12:56:05;12.40;88.60
5459;DHT22;2752;49.992;8.422;2023-04-12T12:58:33;12.40;88.60
5459;DHT22;2752;49.992;8.422;2023-04-12T13:00:59;12.40;90.50
5459;DHT22;2752;49.992;8.422;2023-04-12T13:03:27;12.40;90.80
5459;DHT22;2752;49.992;8.422;2023-04-12T13:05:54;12.50;90.60
5459;DHT22;2752;49.992;8.422;2023-04-12T13:08:21;12.50;90.60
5459;DHT22;2752;49.992;8.422;2023-04-12T13:10:48;12.50;90.60
5459;DHT22;2752;49.992;8.422;2023-04-12T13:13:15;12.50;88.90
5459;DHT22;2752;49.992;8.422;2023-04-12T13:15:42;12.50;87.90
5459;DHT22;2752;49.992;8.422;2023-04-12T13:18:11;12.40;89.60
5459;DHT22;2752;49.992;8.422;2023-04-12T13:20:41;12.50;90.00
5459;DHT22;2752;49.992;8.422;2023-04-12T13:23:08;12.50;90.70
5459;DHT22;2752;49.992;8.422;2023-04-12T13:25:34;12.60;91.60
5459;DHT22;2752;49.992;8.422;2023-04-12T13:28:01;12.70;92.20
5459;DHT22;2752;49.992;8.422;2023-04-12T13:30:28;12.80;91.60
5459;DHT22;2752;49.992;8.422;2023-04-12T13:32:54;13.00;91.90
5459;DHT22;2752;49.992;8.422;2023-04-12T13:35:21;13.00;90.80
5459;DHT22;2752;49.992;8.422;2023-04-12T13:37:49;13.20;88.80
5459;DHT22;2752;49.992;8.422;2023-04-12T13:40:16;13.20;86.30
5459;DHT22;2752;49.992;8.422;2023-04-12T13:42:42;13.30;84.10
5459;DHT22;2752;49.992;8.422;2023-04-12T13:45:10;13.40;81.60
5459;DHT22;2752;49.992;8.422;2023-04-12T13:47:37;13.50;78.90
5459;DHT22;2752;49.992;8.422;2023-04-12T13:50:04;13.50;78.20
5459;DHT22;2752;49.992;8.422;2023-04-12T13:52:32;13.60;78.20
5459;DHT22;2752;49.992;8.422;2023-04-12T13:55:01;13.70;74.80
5459;DHT22;2752;49.992;8.422;2023-04-12T13:57:32;13.60;72.00
5459;DHT22;2752;49.992;8.422;2023-04-12T13:59:59;13.60;74.30
5459;DHT22;2752;49.992;8.422;2023-04-12T14:02:25;13.70;72.90
5459;DHT22;2752;49.992;8.422;2023-04-12T14:04:53;13.80;75.50
5459;DHT22;2752;49.992;8.422;2023-04-12T14:07:21;14.00;72.70
5459;DHT22;2752;49.992;8.422;2023-04-12T14:09:48;14.00;66.00
5459;DHT22;2752;49.992;8.422;2023-04-12T14:12:16;14.00;67.30
5459;DHT22;2752;49.992;8.422;2023-04-12T14:14:43;14.10;69.50
5459;DHT22;2752;49.992;8.422;2023-04-12T14:17:10;14.00;68.50
5459;DHT22;2752;49.992;8.422;2023-04-12T14:19:36;14.00;65.90
5459;DHT22;2752;49.992;8.422;2023-04-12T14:22:03;14.00;64.40
5459;DHT22;2752;49.992;8.422;2023-04-12T14:24:30;13.70;61.40
5459;DHT22;2752;49.992;8.422;2023-04-12T14:26:57;13.50;58.40
5459;DHT22;2752;49.992;8.422;2023-04-12T14:29:26;13.50;56.40
5459;DHT22;2752;49.992;8.422;2023-04-12T14:31:53;13.40;54.90
5459;DHT22;2752;49.992;8.422;2023-04-12T14:34:20;13.20;55.90
5459;DHT22;2752;49.992;8.422;2023-04-12T14:36:46;13.10;60.20
5459;DHT22;2752;49.992;8.422;2023-04-12T14:39:13;13.10;61.70
5459;DHT22;2752;49.992;8.422;2023-04-12T14:41:40;13.10;57.80
5459;DHT22;2752;49.992;8.422;2023-04-12T14:44:08;13.00;61.30
5459;DHT22;2752;49.992;8.422;2023-04-12T14:46:36;13.00;63.80
5459;DHT22;2752;49.992;8.422;2023-04-12T14:49:03;13.00;67.00
5459;DHT22;2752;49.992;8.422;2023-04-12T14:51:30;13.00;68.30
5459;DHT22;2752;49.992;8.422;2023-04-12T14:53:56;13.00;66.60
5459;DHT22;2752;49.992;8.422;2023-04-12T14:56:24;13.10;63.60
5459;DHT22;2752;49.992;8.422;2023-04-12T14:58:53;13.20;60.20
5459;DHT22;2752;49.992;8.422;2023-04-12T15:01:21;13.30;61.30
5459;DHT22;2752;49.992;8.422;2023-04-12T15:03:49;13.20;62.90
5459;DHT22;2752;49.992;8.422;2023-04-12T15:06:16;13.30;64.20
5459;DHT22;2752;49.992;8.422;2023-04-12T15:08:43;13.50;61.30
5459;DHT22;2752;49.992;8.422;2023-04-12T15:11:11;13.70;61.40
5459;DHT22;2752;49.992;8.422;2023-04-12T15:13:38;13.80;56.20
5459;DHT22;2752;49.992;8.422;2023-04-12T15:16:06;14.00;54.00
5459;DHT22;2752;49.992;8.422;2023-04-12T15:18:37;14.20;49.90
5459;DHT22;2752;49.992;8.422;2023-04-12T15:21:07;14.30;46.10
5459;DHT22;2752;49.992;8.422;2023-04-12T15:23:34;14.50;35.80
5459;DHT22;2752;49.992;8.422;2023-04-12T15:26:03;14.80;34.40
5459;DHT22;2752;49.992;8.422;2023-04-12T15:28:31;14.90;29.40
5459;DHT22;2752;49.992;8.422;2023-04-12T15:30:58;15.00;18.20
5459;DHT22;2752;49.992;8.422;2023-04-12T15:33:25;15.00;9.30
5459;DHT22;2752;49.992;8.422;2023-04-12T15:35:52;15.10;10.90
5459;DHT22;2752;49.992;8.422;2023-04-12T15:38:22;14.90;1.00
5459;DHT22;2752;49.992;8.422;2023-04-12T15:40:53;14.80;1.00
5459;DHT22;2752;49.992;8.422;2023-04-12T15:43:20;14.90;1.00
5459;DHT22;2752;49.992;8.422;2023-04-12T15:45:48;15.00;1.00
5459;DHT22;2752;49.992;8.422;2023-04-12T15:48:17;15.10;1.00
5459;DHT22;2752;49.992;8.422;2023-04-12T15:50:44;15.10;1.00
5459;DHT22;2752;49.992;8.422;2023-04-12T15:53:10;15.10;1.00
5459;DHT22;2752;49.992;8.422;2023-04-12T15:55:40;15.40;1.00
5459;DHT22;2752;49.992;8.422;2023-04-12T15:58:07;15.80;1.00
5459;DHT22;2752;49.992;8.422;2023-04-12T16:00:34;16.10;1.00
5459;DHT22;2752;49.992;8.422;2023-04-12T16:03:03;16.20;1.00
5459;DHT22;2752;49.992;8.422;2023-04-12T16:05:32;16.40;1.00
5459;DHT22;2752;49.992;8.422;2023-04-12T16:07:59;16.60;1.00
5459;DHT22;2752;49.992;8.422;2023-04-12T16:10:26;16.60;1.00
5459;DHT22;2752;49.992;8.422;2023-04-12T16:12:54;16.70;1.00
5459;DHT22;2752;49.992;8.422;2023-04-12T16:15:21;16.70;1.00
5459;DHT22;2752;49.992;8.422;2023-04-12T16:17:49;16.70;1.00
5459;DHT22;2752;49.992;8.422;2023-04-12T16:20:17;16.70;1.00
5459;DHT22;2752;49.992;8.422;2023-04-12T16:22:46;16.70;1.00
5459;DHT22;2752;49.992;8.422;2023-04-12T16:25:13;16.70;1.00